Impacts METAR Board
IDs:

KMEM - Memphis Intl, TN, US

Updated at: 1100 UTC 23 Jun 2018
Potential Impact None Slight Moderate High
Time 22/23Z 23/00Z 23/01Z 23/02Z 23/03Z 23/04Z 23/05Z 23/06Z 23/07Z 23/08Z 23/09Z 23/10Z 23/11Z
Temp87 85 83 82 78 78 77 75 75 75 74 73 73
Dewpt66 66 66 66 68 72 73 73 74 73 72 71 70
Altim29.74 29.76 29.75 29.75 29.77 29.79 29.81 29.80 29.78 29.76 29.79 29.81 29.80
VIS10 10 10 10 10 10 10 10 10 10 10 10 10
CIG-- -- -- -- -- -- -- -- -- 27 22 65 --
CoverFEWFEWFEWFEWFEWCLRCLRCLRCLRBKNBKNBKNSCT
FltCatVFRVFRVFRVFRVFRVFRVFRVFRVFRMVFRMVFRVFRVFR
WX--------------------------
WDir310260240270190200200210180190190160160
WSpd8 7 5 4 5 7 6 3 6 7 6 6 6
WGst-- -- -- -- -- -- -- -- -- -- -- -- --
Raw hourly METARs
KMEM 222254Z 31008KT 10SM FEW050 FEW250 31/19 A2974 RMK AO2 SLP068 T03060189
KMEM 222354Z 26007KT 10SM FEW050 FEW250 29/19 A2976 RMK AO2 SLP072 T02940189 10317 20294 55001
KMEM 230054Z 24005KT 10SM FEW050 FEW250 28/19 A2975 RMK AO2 SLP070 T02830189
KMEM 230154Z 27004KT 10SM FEW050 28/19 A2975 RMK AO2 SLP071 T02780189
KMEM 230254Z 19005KT 10SM FEW042 26/20 A2977 RMK AO2 SLP076 T02560200 53004
KMEM 230354Z 20007KT 10SM CLR 26/22 A2979 RMK AO2 SLP083 T02560222
KMEM 230454Z 20006KT 10SM CLR 25/23 A2981 RMK AO2 SLP089 T02500228
KMEM 230554Z 21003KT 10SM CLR 24/23 A2980 RMK AO2 SLP086 T02390228 10294 20239 403170217 50010
KMEM 230654Z 18006KT 10SM CLR 24/23 A2978 RMK AO2 SLP080 T02390233
KMEM 230754Z 19007KT 10SM SCT015 BKN027 24/23 A2976 RMK AO2 SLP074 T02390228
KMEM 230854Z 19006KT 10SM BKN022 23/22 A2979 RMK AO2 SLP083 T02330222 55003
KMEM 230954Z 16006KT 10SM FEW014 SCT024 BKN065 23/22 A2981 RMK AO2 SLP091 T02280217
KMEM 231054Z 16006KT 10SM FEW018 SCT250 23/21 A2980 RMK AO2 SLP088 CB DSNT SE-S MOV E T02280211



Page loaded:  11:42 UTC  |   04:42 AM Pacific  |   05:42 AM Mountain  |   06:42 AM Central  |   07:42 AM Eastern

 

ADVISORIES

FORECASTS

FORECASTS

OBSERVATIONS

USER TOOLS

ABOUT US